Time;durP1;ratioP1;P1;durP2;ratioP2;P2;SDS_P1;SDS_P2;PMS_P1;PMS_P2;Temp;Humidity;BMP_temperature;BMP_pressure;BME280_temperature;BME280_humidity;BME280_pressure;Samples;Min_cycle;Max_cycle;Signal;HPM_P1;HPM_P2
2021/01/19 00:01:22;;;;;;;22.23;6.38;;;7.30;86.70;;;;;;5095241;28;20024;-64
2021/01/19 00:03:47;;;;;;;10.18;5.22;;;7.40;86.80;;;;;;5095863;28;20498;-64
2021/01/19 00:06:15;;;;;;;9.10;3.03;;;7.30;86.80;;;;;;5095109;28;20092;-63
2021/01/19 00:08:40;;;;;;;9.05;3.47;;;7.30;87.00;;;;;;5095746;28;20024;-64
2021/01/19 00:11:06;;;;;;;20.13;6.80;;;7.30;87.00;;;;;;5095476;28;20032;-64
2021/01/19 00:13:32;;;;;;;13.82;6.20;;;7.30;87.10;;;;;;5094437;28;20036;-64
2021/01/19 00:15:58;;;;;;;19.65;5.53;;;7.30;87.10;;;;;;5095291;28;20305;-64
2021/01/19 00:18:25;;;;;;;17.77;6.95;;;7.30;87.20;;;;;;5095434;28;20035;-63
2021/01/19 00:20:50;;;;;;;11.70;5.45;;;7.30;87.30;;;;;;5094807;28;20020;-63
2021/01/19 00:23:16;;;;;;;14.55;6.80;;;7.30;87.30;;;;;;5095015;28;20032;-63
2021/01/19 00:25:43;;;;;;;10.27;5.72;;;7.30;87.50;;;;;;5095257;28;20027;-64
2021/01/19 00:28:09;;;;;;;19.30;6.43;;;7.30;87.60;;;;;;5094497;28;20039;-63
2021/01/19 00:30:39;;;;;;;11.70;6.32;;;7.30;87.60;;;;;;5094185;28;20046;-63
2021/01/19 00:33:05;;;;;;;20.00;7.75;;;7.30;87.60;;;;;;5094967;28;20036;-63
2021/01/19 00:35:31;;;;;;;13.50;6.05;;;7.30;87.70;;;;;;5094193;28;20480;-63
2021/01/19 00:37:59;;;;;;;15.95;7.15;;;7.20;87.90;;;;;;5095065;28;20038;-63
2021/01/19 00:40:28;;;;;;;16.50;7.50;;;7.20;88.00;;;;;;5094344;28;20032;-63
2021/01/19 00:42:54;;;;;;;12.70;5.60;;;7.20;88.30;;;;;;5094544;28;20407;-64
2021/01/19 00:45:20;;;;;;;12.45;6.88;;;7.20;88.50;;;;;;5094801;28;20111;-64
2021/01/19 00:47:46;;;;;;;15.85;6.15;;;7.20;88.70;;;;;;5094469;28;20039;-63
2021/01/19 00:50:12;;;;;;;12.70;6.43;;;7.20;88.80;;;;;;5094316;28;20016;-64
2021/01/19 00:52:38;;;;;;;11.00;4.50;;;7.10;88.90;;;;;;5093201;28;20035;-63
2021/01/19 00:55:09;;;;;;;7.80;3.95;;;7.20;89.10;;;;;;5092895;28;20024;-63
2021/01/19 00:57:36;;;;;;;6.85;3.63;;;7.20;89.20;;;;;;5093028;28;20031;-63
2021/01/19 01:00:08;;;;;;;13.35;4.80;;;7.20;89.40;;;;;;5093107;28;20081;-63
2021/01/19 01:02:34;;;;;;;2.85;2.25;;;7.20;89.40;;;;;;5093876;28;20422;-63
2021/01/19 01:05:01;;;;;;;4.03;3.50;;;7.20;89.30;;;;;;5094482;28;20487;-63
2021/01/19 01:07:35;;;;;;;9.35;3.58;;;7.20;89.30;;;;;;5094352;28;20573;-63
2021/01/19 01:10:04;;;;;;;8.20;3.60;;;7.30;89.90;;;;;;5093504;28;20021;-64
2021/01/19 01:12:29;;;;;;;11.30;4.75;;;7.30;89.20;;;;;;5094463;28;20084;-63
2021/01/19 01:14:55;;;;;;;8.18;3.92;;;7.30;89.00;;;;;;5094004;28;20031;-63
2021/01/19 01:17:21;;;;;;;10.07;3.53;;;7.40;88.90;;;;;;5093621;28;20032;-63
2021/01/19 01:19:47;;;;;;;6.78;2.92;;;7.40;88.90;;;;;;5094257;28;20540;-63
2021/01/19 01:22:13;;;;;;;5.65;3.03;;;7.40;88.90;;;;;;5093854;28;20023;-64
2021/01/19 01:24:38;;;;;;;11.05;4.78;;;7.40;88.80;;;;;;5093332;28;20024;-64
2021/01/19 01:27:04;;;;;;;11.57;5.15;;;7.40;88.80;;;;;;5094055;28;20092;-63
2021/01/19 01:29:30;;;;;;;7.40;3.53;;;7.40;88.70;;;;;;5093664;28;20447;-63
2021/01/19 01:31:55;;;;;;;10.23;4.20;;;7.50;88.80;;;;;;5093587;28;20165;-64
2021/01/19 01:34:21;;;;;;;9.48;4.38;;;7.40;88.80;;;;;;5093771;28;20483;-64
2021/01/19 01:36:47;;;;;;;9.02;3.60;;;7.40;88.90;;;;;;5093227;28;20067;-64
2021/01/19 01:39:12;;;;;;;9.75;5.25;;;7.50;89.00;;;;;;5093333;28;20028;-63
2021/01/19 01:41:38;;;;;;;7.38;3.55;;;7.40;88.90;;;;;;5104426;28;20486;-63
2021/01/19 01:44:04;;;;;;;11.77;5.63;;;7.40;88.90;;;;;;5095439;28;20052;-64
2021/01/19 01:46:37;;;;;;;6.95;4.25;;;7.50;88.90;;;;;;5093550;28;20051;-63
2021/01/19 01:49:04;;;;;;;7.88;4.90;;;7.40;88.90;;;;;;5093603;28;20032;-63
2021/01/19 01:51:30;;;;;;;7.18;3.60;;;7.40;89.00;;;;;;5092649;28;20114;-63
2021/01/19 01:53:57;;;;;;;13.85;7.00;;;7.40;89.00;;;;;;5093520;28;20044;-63
2021/01/19 01:56:23;;;;;;;9.23;3.75;;;7.50;89.10;;;;;;5093529;28;20019;-63
2021/01/19 01:58:51;;;;;;;6.05;3.30;;;7.50;89.00;;;;;;5092840;28;20079;-64
2021/01/19 02:01:17;;;;;;;7.63;4.93;;;7.50;89.10;;;;;;5093227;28;20463;-63
2021/01/19 02:03:43;;;;;;;6.50;4.32;;;7.50;89.00;;;;;;5093410;28;20058;-63
2021/01/19 02:06:09;;;;;;;11.98;4.93;;;7.50;89.00;;;;;;5092729;28;20481;-63
2021/01/19 02:08:56;;;;;;;6.30;3.28;;;7.50;89.00;;;;;;5093088;28;20085;-63
2021/01/19 02:11:56;;;;;;;9.77;5.28;;;7.60;89.00;;;;;;5093270;28;20024;-64
2021/01/19 02:14:27;;;;;;;7.80;4.82;;;7.50;89.00;;;;;;5092997;28;20043;-63
2021/01/19 02:17:24;;;;;;;13.90;8.10;;;7.50;89.00;;;;;;5092983;28;20074;-63
2021/01/19 02:19:52;;;;;;;15.75;8.88;;;7.50;89.20;;;;;;5092460;28;20028;-63
2021/01/19 02:22:49;;;;;;;14.02;7.55;;;7.50;89.10;;;;;;5093046;28;20028;-63
2021/01/19 02:25:48;;;;;;;19.13;8.18;;;7.50;89.20;;;;;;5092824;28;20043;-64
2021/01/19 02:28:36;;;;;;;17.88;8.98;;;7.50;89.40;;;;;;5092763;28;20495;-63
2021/01/19 02:31:20;;;;;;;11.82;7.40;;;7.50;89.50;;;;;;5093112;28;20114;-63
2021/01/19 02:33:54;;;;;;;;;;;7.40;89.50;;;;;;5098632;28;20042;-63
2021/01/19 02:36:23;;;;;;;;;;;7.50;89.70;;;;;;5093395;28;19914;-63
2021/01/19 02:38:56;;;;;;;16.42;9.73;;;7.40;90.10;;;;;;5092729;28;19908;-63
2021/01/19 02:41:23;;;;;;;16.98;8.45;;;7.40;90.00;;;;;;5093257;28;20035;-63
2021/01/19 02:44:15;;;;;;;14.48;6.60;;;7.40;90.30;;;;;;5105450;28;20040;-63
2021/01/19 02:46:41;;;;;;;17.73;8.90;;;7.40;90.20;;;;;;5092854;28;20114;-63
2021/01/19 02:49:06;;;;;;;20.13;8.68;;;7.40;90.20;;;;;;5092193;28;20486;-63
2021/01/19 02:51:32;;;;;;;16.55;8.82;;;7.40;90.20;;;;;;5092350;28;20441;-63
2021/01/19 02:53:59;;;;;;;18.73;9.93;;;7.40;90.20;;;;;;5095864;28;20102;-63
2021/01/19 02:56:44;;;;;;;21.50;11.68;;;7.40;90.20;;;;;;5096741;28;20386;-63
2021/01/19 02:59:31;;;;;;;23.73;8.65;;;7.40;90.20;;;;;;5096817;28;20472;-63
2021/01/19 03:02:10;;;;;;;18.92;10.55;;;7.50;90.30;;;;;;5095767;28;20036;-64
2021/01/19 03:04:36;;;;;;;16.60;8.48;;;7.40;90.30;;;;;;5096057;28;20035;-63
2021/01/19 03:07:05;;;;;;;19.65;10.52;;;7.40;90.30;;;;;;5096322;28;20036;-63
2021/01/19 03:09:34;;;;;;;17.45;9.73;;;7.40;90.40;;;;;;5096124;28;20374;-63
2021/01/19 03:12:00;;;;;;;17.85;7.95;;;7.40;90.50;;;;;;5096316;28;20032;-63
2021/01/19 03:14:26;;;;;;;15.50;9.82;;;7.40;90.50;;;;;;5096588;28;20032;-63
2021/01/19 03:16:52;;;;;;;16.20;9.52;;;7.40;90.60;;;;;;5095691;28;20377;-63
2021/01/19 03:19:20;;;;;;;18.90;9.23;;;7.30;90.60;;;;;;5096222;28;20081;-63
2021/01/19 03:21:45;;;;;;;15.23;8.43;;;7.30;90.70;;;;;;5096669;28;20068;-64
2021/01/19 03:24:11;;;;;;;16.60;9.93;;;7.30;91.00;;;;;;5095616;28;20048;-63
2021/01/19 03:26:38;;;;;;;16.33;8.82;;;7.40;90.70;;;;;;5096288;28;20076;-63
2021/01/19 03:29:04;;;;;;;15.75;9.07;;;7.40;90.70;;;;;;5095747;28;20101;-64
2021/01/19 03:31:31;;;;;;;20.42;9.13;;;7.40;90.70;;;;;;5096129;28;20426;-63
2021/01/19 03:33:56;;;;;;;14.73;8.27;;;7.40;90.70;;;;;;5095980;28;20469;-63
2021/01/19 03:36:22;;;;;;;14.52;8.30;;;7.40;90.70;;;;;;5095590;28;20127;-64
2021/01/19 03:38:48;;;;;;;15.73;8.65;;;7.40;90.80;;;;;;5095784;28;20389;-63
2021/01/19 03:41:13;;;;;;;15.52;7.32;;;7.30;90.80;;;;;;5095970;28;20052;-63
2021/01/19 03:43:39;;;;;;;19.77;9.27;;;7.40;90.80;;;;;;5095379;28;20074;-63
2021/01/19 03:46:05;;;;;;;12.43;8.95;;;7.40;90.80;;;;;;5095434;28;20043;-64
2021/01/19 03:48:30;;;;;;;14.35;7.60;;;7.40;90.80;;;;;;5095786;28;20036;-63
2021/01/19 03:50:56;;;;;;;9.48;6.38;;;7.40;90.80;;;;;;5095481;28;20067;-63
2021/01/19 03:53:21;;;;;;;14.70;7.38;;;7.40;90.90;;;;;;5095563;28;20040;-63
2021/01/19 03:55:47;;;;;;;12.45;6.57;;;7.40;90.80;;;;;;5095701;28;20415;-63
2021/01/19 03:58:13;;;;;;;8.85;5.70;;;7.40;90.80;;;;;;5095090;28;20036;-63
2021/01/19 04:00:38;;;;;;;8.70;5.43;;;7.50;90.80;;;;;;5095532;28;20021;-63
2021/01/19 04:03:04;;;;;;;8.07;4.25;;;7.50;90.70;;;;;;5095513;28;20391;-63
2021/01/19 04:05:30;;;;;;;7.10;3.75;;;7.50;90.70;;;;;;5108176;28;20047;-63
2021/01/19 04:07:55;;;;;;;11.50;6.40;;;7.50;90.60;;;;;;5095509;28;20058;-63
2021/01/19 04:10:21;;;;;;;16.70;5.55;;;7.50;90.60;;;;;;5095496;28;20022;-63
2021/01/19 04:12:47;;;;;;;8.50;5.35;;;7.60;90.60;;;;;;5094762;28;20388;-63
2021/01/19 04:15:13;;;;;;;7.93;5.00;;;7.50;90.50;;;;;;5095330;28;20437;-63
2021/01/19 04:17:38;;;;;;;7.65;4.72;;;7.50;90.40;;;;;;5095264;28;20055;-63
2021/01/19 04:20:05;;;;;;;6.68;4.55;;;7.60;90.40;;;;;;5094905;28;20077;-64
2021/01/19 04:22:31;;;;;;;6.30;4.32;;;7.60;90.50;;;;;;5095527;28;20027;-64
2021/01/19 04:24:57;;;;;;;8.98;4.85;;;7.50;90.50;;;;;;5095266;28;20468;-63
2021/01/19 04:27:23;;;;;;;5.32;3.75;;;7.50;90.50;;;;;;5094301;28;20599;-63
2021/01/19 04:29:48;;;;;;;5.53;2.60;;;7.50;90.50;;;;;;5095133;28;20049;-63
2021/01/19 04:32:15;;;;;;;7.45;4.15;;;7.60;90.50;;;;;;5094796;28;20403;-63
2021/01/19 04:34:41;;;;;;;7.05;3.85;;;7.60;90.40;;;;;;5094570;28;20049;-63
2021/01/19 04:37:07;;;;;;;9.18;4.18;;;7.60;90.40;;;;;;5095114;28;20032;-63
2021/01/19 04:39:32;;;;;;;5.45;3.08;;;7.60;90.40;;;;;;5108407;28;20035;-63
2021/01/19 04:41:58;;;;;;;6.82;4.15;;;7.60;90.40;;;;;;5094452;28;20103;-63
2021/01/19 04:44:26;;;;;;;7.10;3.40;;;7.60;90.40;;;;;;5094606;28;20067;-63
2021/01/19 04:46:52;;;;;;;6.75;3.40;;;7.60;90.30;;;;;;5094241;28;20055;-63
2021/01/19 04:49:19;;;;;;;6.43;3.85;;;7.60;90.40;;;;;;5094580;28;20472;-63
2021/01/19 04:51:48;;;;;;;5.90;3.42;;;7.60;90.30;;;;;;5094707;28;20032;-63
2021/01/19 04:54:18;;;;;;;4.80;3.20;;;7.60;90.30;;;;;;5094194;28;20364;-63
2021/01/19 04:56:53;;;;;;;4.05;2.78;;;7.60;90.30;;;;;;5094293;28;20043;-63
2021/01/19 04:59:24;;;;;;;5.93;3.17;;;7.60;90.30;;;;;;5094397;28;20053;-63
2021/01/19 05:01:53;;;;;;;5.15;2.42;;;7.60;90.30;;;;;;5093881;28;20020;-63
2021/01/19 05:04:27;;;;;;;2.50;1.73;;;7.60;90.40;;;;;;5094624;28;20043;-63
2021/01/19 05:07:32;;;;;;;4.28;2.50;;;7.50;90.40;;;;;;5094242;28;20020;-63
2021/01/19 05:10:05;;;;;;;;;;;7.60;90.40;;;;;;5094644;28;20426;-63
2021/01/19 05:12:37;;;;;;;2.65;1.98;;;7.50;90.30;;;;;;5094241;28;20309;-63
2021/01/19 05:15:06;;;;;;;5.13;2.40;;;7.40;90.50;;;;;;5093383;28;20369;-64
2021/01/19 05:17:33;;;;;;;3.38;2.30;;;7.40;90.60;;;;;;5094063;28;20036;-63
2021/01/19 05:19:59;;;;;;;3.75;2.33;;;7.40;90.60;;;;;;5094098;28;20113;-63
2021/01/19 05:22:25;;;;;;;4.05;2.25;;;7.40;90.70;;;;;;5107772;28;20135;-63
2021/01/19 05:24:52;;;;;;;3.17;2.33;;;7.40;90.70;;;;;;5093837;28;20134;-63
2021/01/19 05:27:19;;;;;;;2.35;1.33;;;7.40;91.00;;;;;;5094041;28;20078;-64
2021/01/19 05:29:44;;;;;;;4.20;2.13;;;7.40;90.70;;;;;;5093377;28;20020;-63
2021/01/19 05:32:10;;;;;;;3.92;2.00;;;7.40;90.70;;;;;;5093139;28;20126;-64
2021/01/19 05:34:36;;;;;;;5.35;1.83;;;7.40;90.60;;;;;;5093369;28;20028;-63
2021/01/19 05:37:03;;;;;;;2.10;1.63;;;7.50;90.60;;;;;;5093125;28;20024;-63
2021/01/19 05:39:29;;;;;;;2.53;1.45;;;7.50;90.50;;;;;;5093484;28;20078;-63
2021/01/19 05:41:56;;;;;;;3.20;1.70;;;7.50;90.40;;;;;;5093577;28;20043;-63
2021/01/19 05:44:30;;;;;;;1.60;1.25;;;7.50;90.40;;;;;;5092841;28;20044;-63
2021/01/19 05:46:59;;;;;;;3.78;1.85;;;7.50;90.40;;;;;;5093423;28;20055;-63
2021/01/19 05:49:42;;;;;;;3.92;2.40;;;7.60;90.40;;;;;;5093563;28;20031;-63
2021/01/19 05:52:15;;;;;;;2.28;1.35;;;7.50;90.40;;;;;;5093212;28;20028;-63
2021/01/19 05:54:48;;;;;;;1.60;1.38;;;7.60;90.40;;;;;;5093514;28;20032;-63
2021/01/19 05:57:15;;;;;;;2.08;0.93;;;7.60;90.40;;;;;;5093066;28;20077;-63
2021/01/19 05:59:45;;;;;;;1.17;1.08;;;7.50;90.40;;;;;;5093055;28;20059;-63
2021/01/19 06:02:15;;;;;;;1.83;1.42;;;7.50;90.30;;;;;;5093591;28;20112;-63
2021/01/19 06:04:47;;;;;;;4.43;1.83;;;7.60;90.30;;;;;;5093004;28;20058;-63
2021/01/19 06:07:37;;;;;;;2.78;1.67;;;7.60;90.30;;;;;;5093022;28;20407;-64
2021/01/19 06:10:17;;;;;;;4.53;1.33;;;7.60;90.20;;;;;;5097957;28;20521;-63
2021/01/19 06:12:43;;;;;;;2.80;1.65;;;7.60;90.20;;;;;;5102737;28;20040;-64
2021/01/19 06:15:09;;;;;;;1.40;1.30;;;7.70;90.20;;;;;;5090785;28;20043;-63
2021/01/19 06:17:36;;;;;;;2.17;1.70;;;7.70;90.20;;;;;;5103022;28;20038;-64
2021/01/19 06:20:06;;;;;;;1.23;1.13;;;7.60;90.10;;;;;;5108337;28;20023;-64
2021/01/19 06:22:32;;;;;;;5.75;1.80;;;7.60;90.20;;;;;;5109861;28;20398;-64
2021/01/19 06:25:01;;;;;;;4.10;1.77;;;7.60;90.20;;;;;;5110265;28;20042;-67
2021/01/19 06:27:31;;;;;;;2.75;1.10;;;7.70;90.20;;;;;;5109935;28;20011;-64
2021/01/19 06:29:59;;;;;;;1.55;1.13;;;7.70;90.10;;;;;;5110537;28;20027;-64
2021/01/19 06:32:27;;;;;;;1.63;1.08;;;7.70;90.10;;;;;;5109352;28;20141;-63
2021/01/19 06:34:53;;;;;;;2.28;1.70;;;7.70;90.00;;;;;;5111004;28;20012;-64
2021/01/19 06:37:27;;;;;;;5.18;1.83;;;7.70;90.00;;;;;;5106750;28;20479;-64
2021/01/19 06:40:05;;;;;;;1.77;1.25;;;7.70;90.00;;;;;;5107120;28;20035;-64
2021/01/19 06:42:32;;;;;;;1.10;1.05;;;7.70;90.00;;;;;;5109293;28;20467;-63
2021/01/19 06:45:00;;;;;;;2.28;1.67;;;7.60;90.00;;;;;;5110398;28;20035;-63
2021/01/19 06:47:26;;;;;;;5.57;1.80;;;7.60;90.10;;;;;;5105591;28;20046;-66
2021/01/19 06:49:53;;;;;;;2.90;2.05;;;7.60;90.10;;;;;;5103133;28;20479;-65
2021/01/19 06:52:20;;;;;;;2.45;1.75;;;7.50;90.20;;;;;;5108826;28;20502;-64
2021/01/19 06:54:55;;;;;;;3.20;1.83;;;7.50;90.30;;;;;;5106234;28;20533;-64
2021/01/19 06:57:30;;;;;;;2.53;1.85;;;7.60;90.30;;;;;;5109803;28;20035;-62
2021/01/19 07:00:11;;;;;;;3.15;2.10;;;7.50;90.20;;;;;;5108384;28;20035;-62
2021/01/19 07:02:39;;;;;;;3.78;2.10;;;7.50;90.30;;;;;;5110190;28;20114;-62
2021/01/19 07:05:10;;;;;;;2.25;1.73;;;7.50;90.50;;;;;;5109652;28;20020;-63
2021/01/19 07:07:41;;;;;;;4.03;2.20;;;7.40;90.60;;;;;;5108989;28;20107;-62
2021/01/19 07:10:19;;;;;;;3.75;2.53;;;7.40;90.70;;;;;;5106628;28;20110;-62
2021/01/19 07:12:55;;;;;;;3.15;1.92;;;7.40;90.70;;;;;;5110159;28;20039;-63
2021/01/19 07:16:00;;;;;;;4.60;2.20;;;7.40;90.80;;;;;;5106608;28;20555;-64
2021/01/19 07:18:38;;;;;;;;;;;7.30;90.90;;;;;;5102883;28;20059;-63
2021/01/19 07:21:17;;;;;;;3.42;2.20;;;7.30;90.90;;;;;;5106011;28;20465;-63
2021/01/19 07:23:46;;;;;;;2.42;1.73;;;7.30;90.90;;;;;;5105557;28;20022;-63
2021/01/19 07:26:33;;;;;;;1.30;1.13;;;7.20;90.90;;;;;;5109191;28;20027;-63
2021/01/19 07:28:59;;;;;;;1.88;1.38;;;7.30;91.10;;;;;;5108679;28;20027;-63
2021/01/19 07:31:25;;;;;;;2.20;1.75;;;7.30;91.00;;;;;;5109499;28;20061;-63
2021/01/19 07:33:58;;;;;;;2.30;1.88;;;7.30;91.00;;;;;;5105711;28;20075;-63
2021/01/19 07:36:26;;;;;;;4.05;2.40;;;7.40;91.00;;;;;;5104368;28;20034;-64
2021/01/19 07:38:51;;;;;;;2.17;1.60;;;7.40;90.90;;;;;;5108935;28;20027;-63
2021/01/19 07:41:30;;;;;;;1.92;1.73;;;7.40;90.90;;;;;;5108800;28;20375;-64
2021/01/19 07:43:56;;;;;;;3.22;1.67;;;7.40;91.00;;;;;;5110554;28;20048;-64
2021/01/19 07:46:23;;;;;;;5.32;1.77;;;7.40;90.90;;;;;;5100762;28;20032;-64
2021/01/19 07:49:03;;;;;;;2.95;2.45;;;7.40;91.00;;;;;;5100387;28;20372;-64
2021/01/19 07:51:46;;;;;;;2.58;1.98;;;7.40;91.00;;;;;;5104287;28;20027;-64
2021/01/19 07:54:35;;;;;;;2.75;1.83;;;7.40;91.00;;;;;;5101281;28;20035;-64
2021/01/19 07:57:12;;;;;;;2.63;1.73;;;7.40;91.00;;;;;;5101905;28;20031;-64
2021/01/19 07:59:38;;;;;;;3.00;2.05;;;7.40;91.00;;;;;;5110738;28;20055;-64
2021/01/19 08:02:04;;;;;;;1.92;1.77;;;7.40;91.10;;;;;;5105128;28;20034;-61
2021/01/19 08:04:38;;;;;;;2.55;1.95;;;7.40;91.10;;;;;;5111834;28;20020;-61
2021/01/19 08:07:19;;;;;;;3.00;2.17;;;7.40;91.10;;;;;;5111671;28;20031;-61
2021/01/19 08:09:45;;;;;;;2.92;1.92;;;7.40;91.10;;;;;;5113205;28;20031;-61
2021/01/19 08:12:14;;;;;;;2.83;2.00;;;7.40;91.20;;;;;;5109541;28;20475;-62
2021/01/19 08:14:41;;;;;;;2.53;2.13;;;7.30;91.30;;;;;;5110953;28;20042;-62
2021/01/19 08:17:08;;;;;;;2.38;1.77;;;7.30;91.40;;;;;;5107326;28;20123;-62
2021/01/19 08:19:38;;;;;;;3.42;2.20;;;7.40;91.50;;;;;;5103351;28;20038;-62
2021/01/19 08:22:04;;;;;;;2.63;1.70;;;7.40;91.50;;;;;;5103434;28;20044;-62
2021/01/19 08:24:30;;;;;;;5.22;2.10;;;7.40;91.50;;;;;;5104952;28;20030;-62
2021/01/19 08:26:56;;;;;;;2.28;1.80;;;7.40;91.50;;;;;;5104336;27;20398;-63
2021/01/19 08:29:23;;;;;;;2.08;1.73;;;7.40;91.40;;;;;;5102645;28;20105;-62
2021/01/19 08:31:59;;;;;;;1.80;1.35;;;7.40;91.40;;;;;;5099785;28;20023;-62
2021/01/19 08:34:26;;;;;;;2.88;2.08;;;7.50;91.40;;;;;;5104921;28;20088;-62
2021/01/19 08:36:53;;;;;;;2.78;2.03;;;7.50;91.40;;;;;;5114146;28;20073;-62
2021/01/19 08:39:19;;;;;;;4.38;2.10;;;7.50;91.40;;;;;;5099283;28;20036;-62
2021/01/19 08:41:47;;;;;;;2.35;2.00;;;7.50;91.40;;;;;;5098174;28;20028;-61
2021/01/19 08:44:14;;;;;;;2.75;1.77;;;7.60;91.40;;;;;;5091012;28;20513;-61
2021/01/19 08:46:40;;;;;;;1.70;1.60;;;7.60;91.40;;;;;;5103835;28;20107;-61
2021/01/19 08:49:12;;;;;;;2.08;1.85;;;7.50;91.40;;;;;;5106037;28;20048;-60
2021/01/19 08:51:41;;;;;;;2.90;2.20;;;7.60;91.40;;;;;;5098883;28;20028;-61
2021/01/19 08:54:08;;;;;;;2.70;1.52;;;7.60;91.30;;;;;;5096999;28;20079;-61
2021/01/19 08:56:39;;;;;;;1.77;1.63;;;7.60;91.30;;;;;;5101143;28;20061;-61
2021/01/19 08:59:04;;;;;;;1.98;1.25;;;7.60;91.30;;;;;;5097600;28;20051;-61
2021/01/19 09:01:30;;;;;;;3.05;2.20;;;7.70;91.30;;;;;;5100899;28;20020;-61
2021/01/19 09:04:02;;;;;;;2.10;1.63;;;7.70;91.30;;;;;;5097793;28;20397;-61
2021/01/19 09:06:29;;;;;;;2.05;1.73;;;7.60;91.30;;;;;;5101646;28;20020;-61
2021/01/19 09:09:00;;;;;;;2.25;1.85;;;7.70;91.30;;;;;;5096705;28;20027;-61
2021/01/19 09:11:31;;;;;;;3.55;1.92;;;7.70;91.30;;;;;;5100173;28;20061;-61
2021/01/19 09:14:01;;;;;;;1.38;1.27;;;7.70;91.30;;;;;;5096519;28;20085;-61
2021/01/19 09:16:30;;;;;;;1.95;1.35;;;7.70;91.40;;;;;;5096782;28;20036;-61
2021/01/19 09:18:57;;;;;;;2.08;1.50;;;7.70;91.60;;;;;;5094833;28;20028;-61
2021/01/19 09:21:23;;;;;;;2.38;1.67;;;7.70;91.30;;;;;;5111553;28;20024;-61
2021/01/19 09:23:49;;;;;;;1.70;1.55;;;7.70;91.30;;;;;;5099721;28;20024;-61
2021/01/19 09:26:14;;;;;;;1.95;1.42;;;7.80;91.30;;;;;;5094887;28;20028;-62
2021/01/19 09:28:40;;;;;;;1.33;1.20;;;7.80;91.30;;;;;;5106188;28;20034;-65
2021/01/19 09:31:23;;;;;;;1.58;1.48;;;7.80;91.30;;;;;;5105083;28;20062;-61
2021/01/19 09:33:51;;;;;;;2.42;1.67;;;7.80;91.30;;;;;;5101518;28;20549;-61
2021/01/19 09:36:17;;;;;;;2.10;1.40;;;7.80;91.20;;;;;;5110221;28;20039;-61
2021/01/19 09:38:47;;;;;;;1.88;1.55;;;7.90;91.20;;;;;;5111892;28;20027;-62
2021/01/19 09:41:18;;;;;;;1.33;1.05;;;7.90;91.20;;;;;;5106098;28;20114;-63
2021/01/19 09:43:50;;;;;;;1.42;1.30;;;7.90;91.40;;;;;;5109424;28;20047;-63
2021/01/19 09:46:18;;;;;;;1.67;1.40;;;7.90;91.20;;;;;;5109190;28;20032;-63
2021/01/19 09:48:47;;;;;;;1.75;1.30;;;7.90;91.10;;;;;;5110607;28;20043;-61
2021/01/19 09:51:12;;;;;;;1.85;1.40;;;8.00;91.10;;;;;;5106691;28;20027;-61
2021/01/19 09:53:39;;;;;;;0.73;0.73;;;8.00;91.10;;;;;;5110446;28;20050;-62
2021/01/19 09:56:16;;;;;;;1.90;1.60;;;8.00;91.10;;;;;;5107621;28;20023;-60
2021/01/19 09:58:41;;;;;;;1.30;1.20;;;8.00;91.10;;;;;;5105965;28;20024;-61
2021/01/19 10:01:07;;;;;;;1.20;1.13;;;8.00;91.00;;;;;;5106285;28;20031;-63
2021/01/19 10:03:34;;;;;;;2.10;1.52;;;8.10;91.10;;;;;;5106951;28;20032;-63
2021/01/19 10:06:01;;;;;;;1.17;0.95;;;8.10;91.00;;;;;;5109003;28;20028;-63
2021/01/19 10:08:27;;;;;;;2.13;1.40;;;8.00;91.00;;;;;;5104432;27;20079;-63
2021/01/19 10:10:53;;;;;;;1.33;1.23;;;8.10;91.00;;;;;;5097559;28;20031;-67
2021/01/19 10:13:24;;;;;;;1.50;1.40;;;8.10;90.90;;;;;;5105559;28;20036;-62
2021/01/19 10:16:01;;;;;;;1.65;1.42;;;8.10;90.90;;;;;;5101463;28;20059;-63
2021/01/19 10:18:27;;;;;;;3.55;1.50;;;8.10;90.90;;;;;;5104848;28;20039;-63
2021/01/19 10:20:53;;;;;;;1.00;1.00;;;8.10;90.90;;;;;;5101159;28;20118;-62
2021/01/19 10:23:27;;;;;;;1.70;1.23;;;8.10;91.00;;;;;;5102952;28;20089;-63
2021/01/19 10:26:11;;;;;;;;;;;8.10;91.00;;;;;;5099905;28;20379;-63
2021/01/19 10:28:39;;;;;;;1.60;1.48;;;8.10;90.90;;;;;;5100240;28;19911;-63
2021/01/19 10:31:15;;;;;;;1.30;1.20;;;8.20;90.90;;;;;;5100567;28;20034;-63
2021/01/19 10:33:58;;;;;;;2.70;1.15;;;8.20;90.90;;;;;;5105667;28;20478;-63
2021/01/19 10:36:29;;;;;;;1.23;1.13;;;8.20;90.90;;;;;;5102467;28;20039;-65
2021/01/19 10:39:05;;;;;;;2.75;1.67;;;8.20;91.00;;;;;;5104160;28;20109;-65
2021/01/19 10:41:32;;;;;;;1.38;1.27;;;8.20;91.00;;;;;;5104816;28;20031;-66
2021/01/19 10:43:58;;;;;;;1.52;1.42;;;8.30;91.00;;;;;;5101070;28;20048;-63
2021/01/19 10:46:25;;;;;;;0.80;0.80;;;8.30;91.00;;;;;;5092581;28;20379;-62
2021/01/19 10:49:06;;;;;;;0.95;0.90;;;8.30;91.10;;;;;;5090645;28;20028;-61
2021/01/19 10:51:33;;;;;;;0.57;0.57;;;8.30;91.10;;;;;;5091430;28;20041;-62
2021/01/19 10:54:17;;;;;;;1.83;1.00;;;8.30;91.10;;;;;;5093030;28;20040;-62
2021/01/19 10:56:59;;;;;;;1.60;1.15;;;8.30;91.10;;;;;;5106867;28;20053;-65
2021/01/19 10:59:25;;;;;;;1.67;1.50;;;8.40;91.10;;;;;;5109014;28;20093;-72
2021/01/19 11:01:50;;;;;;;1.42;1.30;;;8.40;91.00;;;;;;5104818;28;20065;-63
2021/01/19 11:04:16;;;;;;;1.73;1.48;;;8.50;91.00;;;;;;5101492;28;20032;-62
2021/01/19 11:06:41;;;;;;;2.53;1.65;;;8.50;91.00;;;;;;5091831;28;20024;-62
2021/01/19 11:09:07;;;;;;;1.65;1.55;;;8.50;91.00;;;;;;5103269;28;20028;-62
2021/01/19 11:11:37;;;;;;;1.90;1.38;;;8.50;91.10;;;;;;5105568;28;20031;-62
2021/01/19 11:14:04;;;;;;;1.98;1.15;;;8.50;91.10;;;;;;5104288;28;20092;-62
2021/01/19 11:16:35;;;;;;;1.42;1.33;;;8.60;91.20;;;;;;5108981;28;20124;-62
2021/01/19 11:19:03;;;;;;;2.47;1.88;;;8.50;91.20;;;;;;5110363;28;20031;-62
2021/01/19 11:21:34;;;;;;;2.42;1.70;;;8.60;91.20;;;;;;5107990;28;20035;-62
2021/01/19 11:24:01;;;;;;;2.20;1.77;;;8.60;91.30;;;;;;5104987;28;20024;-61
2021/01/19 11:26:27;;;;;;;3.13;1.77;;;8.60;91.30;;;;;;5106061;28;20382;-63
2021/01/19 11:28:54;;;;;;;1.85;1.42;;;8.60;91.30;;;;;;5104379;28;20028;-62
2021/01/19 11:31:28;;;;;;;3.20;1.90;;;8.60;91.40;;;;;;5113502;28;20016;-63
2021/01/19 11:33:54;;;;;;;3.13;2.00;;;8.70;91.40;;;;;;5105491;28;20041;-62
2021/01/19 11:36:31;;;;;;;2.67;1.67;;;8.70;91.50;;;;;;5109409;28;20051;-62
2021/01/19 11:38:57;;;;;;;2.15;1.55;;;8.70;91.50;;;;;;5109418;28;20027;-61
2021/01/19 11:41:25;;;;;;;1.15;0.90;;;8.70;91.50;;;;;;5110559;28;20035;-61
2021/01/19 11:43:52;;;;;;;2.63;1.60;;;8.80;91.50;;;;;;5112602;28;20491;-64
2021/01/19 11:46:26;;;;;;;3.65;1.90;;;8.80;91.50;;;;;;5110724;28;20080;-63
2021/01/19 11:48:53;;;;;;;3.95;2.08;;;8.80;91.60;;;;;;5111379;28;20486;-64
2021/01/19 11:51:22;;;;;;;4.15;2.80;;;8.90;91.60;;;;;;5111122;28;20027;-64
2021/01/19 11:53:52;;;;;;;3.55;2.30;;;8.90;91.60;;;;;;5110431;28;20118;-63
2021/01/19 11:56:18;;;;;;;2.97;1.98;;;8.90;91.70;;;;;;5112550;28;20110;-63
2021/01/19 11:58:45;;;;;;;2.15;1.67;;;8.90;91.70;;;;;;5113651;28;20034;-63
2021/01/19 12:01:21;;;;;;;3.45;2.13;;;8.90;91.80;;;;;;5112624;28;20399;-63
2021/01/19 12:03:47;;;;;;;3.78;2.15;;;9.00;91.90;;;;;;5111111;27;20038;-62
2021/01/19 12:06:14;;;;;;;4.22;2.05;;;9.00;91.90;;;;;;5111866;28;20036;-63
2021/01/19 12:08:40;;;;;;;3.75;2.03;;;9.00;92.00;;;;;;5109890;28;20032;-63
2021/01/19 12:11:07;;;;;;;3.47;1.90;;;9.00;92.00;;;;;;5111554;28;20028;-63
2021/01/19 12:13:32;;;;;;;4.05;2.33;;;9.00;92.10;;;;;;5109925;28;20115;-63
2021/01/19 12:15:58;;;;;;;4.20;2.08;;;9.00;92.20;;;;;;5112080;28;20106;-63
2021/01/19 12:18:24;;;;;;;5.32;2.17;;;9.00;92.50;;;;;;5110413;28;20129;-62
2021/01/19 12:20:49;;;;;;;2.72;1.98;;;9.00;92.30;;;;;;5112600;28;20051;-63
2021/01/19 12:23:16;;;;;;;5.40;2.13;;;9.10;92.40;;;;;;5111439;28;20032;-63
2021/01/19 12:25:41;;;;;;;3.03;1.80;;;9.10;92.40;;;;;;5105321;28;20467;-63
2021/01/19 12:28:07;;;;;;;1.85;1.42;;;9.20;92.40;;;;;;5103610;28;20082;-63
2021/01/19 12:30:33;;;;;;;6.45;2.92;;;9.20;92.50;;;;;;5099627;28;20012;-63
2021/01/19 12:32:58;;;;;;;4.85;1.95;;;9.20;92.50;;;;;;5105253;28;20070;-63
2021/01/19 12:35:24;;;;;;;6.28;2.65;;;9.20;92.70;;;;;;5101010;28;20074;-63
2021/01/19 12:37:54;;;;;;;7.57;2.25;;;9.20;92.80;;;;;;5096835;28;20383;-63
2021/01/19 12:40:20;;;;;;;8.30;2.13;;;9.20;92.70;;;;;;5099914;28;20028;-63
2021/01/19 12:42:45;;;;;;;9.68;2.28;;;9.20;92.80;;;;;;5094488;28;20027;-63
2021/01/19 12:45:12;;;;;;;7.75;1.58;;;9.20;92.80;;;;;;5094013;28;20138;-63
2021/01/19 12:47:38;;;;;;;8.43;1.88;;;9.20;92.90;;;;;;5099700;28;20026;-63
2021/01/19 12:50:04;;;;;;;10.07;2.67;;;9.20;92.90;;;;;;5103887;28;20036;-63
2021/01/19 12:52:30;;;;;;;10.07;2.28;;;9.30;92.90;;;;;;5107924;28;20039;-63
2021/01/19 12:54:56;;;;;;;8.85;1.50;;;9.30;92.90;;;;;;5109643;28;20024;-63
2021/01/19 12:57:22;;;;;;;6.45;1.70;;;9.40;92.90;;;;;;5111709;28;20047;-63
2021/01/19 12:59:47;;;;;;;7.22;1.67;;;9.40;92.90;;;;;;5110864;28;20019;-63
2021/01/19 13:02:13;;;;;;;4.80;1.40;;;9.40;92.90;;;;;;5109909;28;20081;-63
2021/01/19 13:04:39;;;;;;;5.45;2.10;;;9.50;92.90;;;;;;5110344;28;20430;-63
2021/01/19 13:07:04;;;;;;;8.90;2.17;;;9.50;92.80;;;;;;5105674;28;20034;-63